Time;durP1;ratioP1;P1;durP2;ratioP2;P2;SDS_P1;SDS_P2;PMS_P1;PMS_P2;Temp;Humidity;BMP_temperature;BMP_pressure;BME280_temperature;BME280_humidity;BME280_pressure;Samples;Min_cycle;Max_cycle;Signal;HPM_P1;HPM_P2
2021/09/28 00:00:46;;;;;;;60.30;41.58;;;461.70;2380.80;;;;;;5054072;28;20108;-78
2021/09/28 00:03:12;;;;;;;54.65;39.00;;;461.70;2380.80;;;;;;5054077;28;20033;-79
2021/09/28 00:05:38;;;;;;;58.50;36.00;;;461.60;2380.80;;;;;;5052662;28;20025;-79
2021/09/28 00:08:04;;;;;;;56.90;36.25;;;461.70;2380.80;;;;;;5053944;28;20017;-79
2021/09/28 00:10:31;;;;;;;51.22;35.60;;;461.60;2380.80;;;;;;5054216;28;20476;-80
2021/09/28 00:12:57;;;;;;;53.80;34.88;;;461.60;2380.80;;;;;;5053568;28;20032;-79
2021/09/28 00:15:23;;;;;;;56.67;33.58;;;461.60;2380.80;;;;;;5053879;28;20033;-79
2021/09/28 00:17:49;;;;;;;51.45;32.55;;;461.60;2380.80;;;;;;5052058;28;20025;-79
2021/09/28 00:20:16;;;;;;;47.92;30.38;;;461.60;2380.80;;;;;;5052758;28;20042;-78
2021/09/28 00:22:42;;;;;;;38.60;28.67;;;461.50;2380.80;;;;;;5052581;28;20017;-78
2021/09/28 00:25:09;;;;;;;44.78;28.95;;;461.60;2380.80;;;;;;5058832;28;20479;-79
2021/09/28 00:27:35;;;;;;;37.88;25.73;;;461.60;2380.80;;;;;;5063976;28;20032;-77
2021/09/28 00:30:02;;;;;;;35.17;24.63;;;461.60;2380.80;;;;;;5053045;28;20018;-77
2021/09/28 00:32:27;;;;;;;33.80;23.23;;;461.60;2380.80;;;;;;5052700;28;20051;-77
2021/09/28 00:34:53;;;;;;;35.25;24.52;;;461.60;2380.80;;;;;;5050500;28;20040;-77
2021/09/28 00:37:19;;;;;;;27.95;21.38;;;461.70;2380.80;;;;;;5052068;28;20036;-77
2021/09/28 00:39:45;;;;;;;28.17;21.42;;;461.70;2380.80;;;;;;5052544;28;20025;-77
2021/09/28 00:42:11;;;;;;;32.72;21.33;;;461.70;2380.80;;;;;;5051777;28;20067;-77
2021/09/28 00:44:39;;;;;;;26.58;19.67;;;461.70;2380.80;;;;;;5067503;28;20037;-77
2021/09/28 00:47:07;;;;;;;22.85;18.25;;;461.70;2380.80;;;;;;5053049;28;20028;-77
2021/09/28 00:49:34;;;;;;;23.00;17.70;;;486.40;2380.80;;;;;;5051400;28;20044;-77
2021/09/28 00:52:00;;;;;;;21.27;17.20;;;461.70;2380.80;;;;;;5053749;28;20021;-78
2021/09/28 00:54:26;;;;;;;22.75;18.42;;;461.70;2380.80;;;;;;5053412;28;20032;-78
2021/09/28 00:56:52;;;;;;;25.45;17.15;;;461.70;2380.80;;;;;;5051793;28;20029;-78
2021/09/28 00:59:19;;;;;;;23.45;18.17;;;461.70;2380.80;;;;;;5052207;28;20036;-78
2021/09/28 01:01:45;;;;;;;20.65;16.73;;;461.70;2380.80;;;;;;5051663;28;20024;-78
2021/09/28 01:04:16;;;;;;;21.95;16.33;;;461.70;2380.80;;;;;;5053258;28;20021;-79
2021/09/28 01:06:43;;;;;;;20.70;16.60;;;461.70;2380.80;;;;;;5052835;28;20013;-78
2021/09/28 01:09:13;;;;;;;20.02;16.02;;;461.70;2380.80;;;;;;5051285;28;20108;-79
2021/09/28 01:11:40;;;;;;;23.55;16.90;;;461.70;2380.80;;;;;;5052673;28;20471;-78
2021/09/28 01:14:06;;;;;;;19.23;15.88;;;461.70;2380.80;;;;;;5051967;28;20037;-78
2021/09/28 01:16:32;;;;;;;20.70;15.15;;;461.70;2380.80;;;;;;5051800;28;20028;-78
2021/09/28 01:18:58;;;;;;;20.35;15.43;;;461.70;2380.80;;;;;;5052457;28;20043;-78
2021/09/28 01:21:24;;;;;;;20.13;15.20;;;461.60;2380.80;;;;;;5053065;28;20033;-78
2021/09/28 01:23:50;;;;;;;20.45;15.05;;;461.60;2380.80;;;;;;5050881;28;20091;-78
2021/09/28 01:26:17;;;;;;;33.17;16.50;;;461.60;2380.80;;;;;;5052848;28;20128;-78
2021/09/28 01:28:44;;;;;;;21.88;15.15;;;461.70;2380.80;;;;;;5052700;28;20049;-79
2021/09/28 01:31:11;;;;;;;21.23;16.27;;;461.70;2380.80;;;;;;5056164;28;20021;-79
2021/09/28 01:33:38;;;;;;;20.48;15.85;;;461.70;2380.80;;;;;;5053059;28;20049;-78
2021/09/28 01:36:04;;;;;;;19.88;16.60;;;461.70;2380.80;;;;;;5052086;28;20051;-78
2021/09/28 01:38:30;;;;;;;23.58;16.73;;;461.70;2380.80;;;;;;5051672;28;20449;-79
2021/09/28 01:40:56;;;;;;;20.92;15.57;;;486.40;2380.80;;;;;;5051221;28;20033;-78
2021/09/28 01:43:22;;;;;;;20.33;15.52;;;486.40;2380.80;;;;;;5052004;28;20059;-79
2021/09/28 01:45:55;;;;;;;21.05;15.68;;;486.40;2380.80;;;;;;5066765;28;20044;-79
2021/09/28 01:48:29;;;;;;;19.35;15.68;;;486.40;2380.80;;;;;;5038647;28;20025;-78
2021/09/28 01:50:55;;;;;;;23.40;17.42;;;486.40;2380.80;;;;;;5051424;28;20112;-77
2021/09/28 01:53:21;;;;;;;21.55;15.50;;;486.50;2380.80;;;;;;5051983;28;20108;-77
2021/09/28 01:55:46;;;;;;;18.70;15.38;;;486.50;2380.80;;;;;;5049624;28;20079;-76
2021/09/28 01:58:14;;;;;;;20.35;16.13;;;486.40;2380.80;;;;;;5051774;28;20017;-76
2021/09/28 02:00:40;;;;;;;19.73;15.70;;;486.50;2380.80;;;;;;5051476;28;20427;-76
2021/09/28 02:03:06;;;;;;;21.85;14.70;;;486.50;2380.80;;;;;;5047684;28;20035;-76
2021/09/28 02:05:32;;;;;;;20.55;16.23;;;486.50;2380.80;;;;;;5029964;28;20116;-76
2021/09/28 02:07:58;;;;;;;19.58;15.45;;;486.50;2380.80;;;;;;5047105;28;20051;-76
2021/09/28 02:10:24;;;;;;;22.05;16.30;;;486.50;2380.80;;;;;;5067267;28;20064;-76
2021/09/28 02:12:50;;;;;;;20.63;15.63;;;486.60;2380.80;;;;;;5053704;28;20017;-80
2021/09/28 02:15:16;;;;;;;20.50;15.20;;;486.50;2380.80;;;;;;5051698;28;20020;-77
2021/09/28 02:17:42;;;;;;;20.05;16.02;;;486.60;2380.80;;;;;;5050025;28;20044;-78
2021/09/28 02:20:09;;;;;;;21.33;16.15;;;486.60;2380.80;;;;;;5042953;28;20101;-77
2021/09/28 02:22:35;;;;;;;20.40;15.70;;;486.60;2380.80;;;;;;5042179;28;20032;-76
2021/09/28 02:25:00;;;;;;;20.27;14.32;;;486.60;2380.80;;;;;;5044227;28;20049;-76
2021/09/28 02:27:26;;;;;;;18.45;14.40;;;486.60;2380.80;;;;;;5051936;28;20384;-77
2021/09/28 02:29:52;;;;;;;19.08;14.07;;;486.70;2380.80;;;;;;5051693;28;20340;-77
2021/09/28 02:32:18;;;;;;;19.50;15.23;;;486.70;2380.80;;;;;;5067311;28;20530;-77
2021/09/28 02:34:43;;;;;;;17.45;14.50;;;486.70;2380.80;;;;;;5058437;28;20037;-78
2021/09/28 02:37:11;;;;;;;18.52;15.63;;;486.60;2380.80;;;;;;5059331;28;20029;-77
2021/09/28 02:39:39;;;;;;;18.48;14.32;;;486.60;2380.80;;;;;;5051437;28;20029;-78
2021/09/28 02:42:06;;;;;;;19.55;14.57;;;486.70;2380.80;;;;;;5051813;28;20191;-79
2021/09/28 02:44:32;;;;;;;19.95;15.25;;;486.70;2380.80;;;;;;5050256;28;20090;-78
2021/09/28 02:46:58;;;;;;;16.80;14.38;;;486.70;2380.80;;;;;;5051744;28;20468;-78
2021/09/28 02:49:23;;;;;;;20.23;15.15;;;486.70;2380.80;;;;;;5051177;28;20047;-78
2021/09/28 02:51:49;;;;;;;20.35;16.25;;;486.70;2380.80;;;;;;5051492;28;20021;-77
2021/09/28 02:54:15;;;;;;;19.00;14.65;;;486.60;2380.80;;;;;;5051468;28;20040;-78
2021/09/28 02:56:40;;;;;;;18.77;14.30;;;486.70;2380.80;;;;;;5049942;28;20075;-77
2021/09/28 02:59:06;;;;;;;20.30;15.27;;;486.70;2380.80;;;;;;5050640;28;20025;-77
2021/09/28 03:01:32;;;;;;;20.35;14.73;;;486.70;2380.80;;;;;;5051474;28;20056;-77
2021/09/28 03:03:58;;;;;;;19.05;14.95;;;486.70;2380.80;;;;;;5051768;28;20126;-77
2021/09/28 03:06:24;;;;;;;19.50;15.40;;;486.70;2380.80;;;;;;5051677;28;20039;-78
2021/09/28 03:08:49;;;;;;;21.38;16.77;;;486.70;2380.80;;;;;;5059313;28;20021;-78
2021/09/28 03:11:16;;;;;;;21.05;14.02;;;486.70;2380.80;;;;;;5057944;28;20377;-78
2021/09/28 03:13:42;;;;;;;17.63;15.27;;;486.70;2380.80;;;;;;5051750;28;20472;-78
2021/09/28 03:16:08;;;;;;;18.65;14.98;;;486.80;2380.80;;;;;;5051393;28;20042;-78
2021/09/28 03:18:33;;;;;;;20.02;15.65;;;486.70;2380.80;;;;;;5049875;28;20037;-78
2021/09/28 03:20:59;;;;;;;18.15;15.02;;;486.70;2380.80;;;;;;5050120;28;20080;-78
2021/09/28 03:23:25;;;;;;;19.25;15.45;;;486.70;2380.80;;;;;;5050972;28;20087;-78
2021/09/28 03:25:51;;;;;;;20.58;14.88;;;486.70;2380.80;;;;;;5050346;28;20025;-79
2021/09/28 03:28:17;;;;;;;20.65;15.38;;;486.70;2380.80;;;;;;5066170;28;20124;-78
2021/09/28 03:30:43;;;;;;;19.85;15.50;;;486.80;2380.80;;;;;;5051499;28;20021;-79
2021/09/28 03:33:09;;;;;;;25.25;16.33;;;486.70;2380.80;;;;;;5053846;28;20114;-79
2021/09/28 03:35:35;;;;;;;21.40;16.20;;;486.70;2380.80;;;;;;5059310;28;20029;-79
2021/09/28 03:38:01;;;;;;;18.52;14.48;;;486.70;2380.80;;;;;;5045929;28;20028;-79
2021/09/28 03:40:30;;;;;;;18.05;15.43;;;486.70;2380.80;;;;;;5044925;28;20025;-79
2021/09/28 03:42:57;;;;;;;19.58;14.57;;;486.70;2380.80;;;;;;5059407;28;20025;-78
2021/09/28 03:45:22;;;;;;;22.48;17.23;;;486.70;2380.80;;;;;;5051886;28;20128;-78
2021/09/28 03:47:48;;;;;;;20.90;16.15;;;486.70;2380.80;;;;;;5044630;28;20548;-79
2021/09/28 03:50:14;;;;;;;20.88;15.60;;;486.70;2380.80;;;;;;5051394;28;20404;-79
2021/09/28 03:52:40;;;;;;;21.33;17.55;;;486.70;2380.80;;;;;;5060026;28;20057;-79
2021/09/28 03:55:06;;;;;;;20.10;15.25;;;486.70;2380.80;;;;;;5057965;28;20072;-79
2021/09/28 03:57:32;;;;;;;22.70;17.05;;;486.70;2380.80;;;;;;5052101;28;20028;-79
2021/09/28 03:59:57;;;;;;;22.33;15.73;;;486.70;2380.80;;;;;;5049569;28;20036;-78
2021/09/28 04:02:23;;;;;;;20.83;16.52;;;486.70;2380.80;;;;;;5052828;28;20492;-78
2021/09/28 04:04:49;;;;;;;20.85;16.33;;;486.70;2380.80;;;;;;5059158;28;20071;-79
2021/09/28 04:07:15;;;;;;;21.98;16.35;;;486.70;2380.80;;;;;;5042457;28;20029;-78
2021/09/28 04:09:41;;;;;;;24.63;17.55;;;486.70;2380.80;;;;;;5052074;28;20025;-79
2021/09/28 04:12:08;;;;;;;25.13;17.23;;;486.60;2380.80;;;;;;5045024;28;20032;-78
2021/09/28 04:14:34;;;;;;;25.67;19.52;;;486.60;2380.80;;;;;;5054280;28;20029;-82
2021/09/28 04:17:00;;;;;;;23.95;17.70;;;486.60;2380.80;;;;;;5053840;28;20090;-78
2021/09/28 04:19:26;;;;;;;25.95;17.67;;;486.70;2380.80;;;;;;5069640;28;20028;-77
2021/09/28 04:21:51;;;;;;;26.17;18.52;;;486.60;2380.80;;;;;;5052528;28;20029;-78
2021/09/28 04:24:17;;;;;;;27.50;20.13;;;486.70;2380.80;;;;;;5052325;28;20041;-78
2021/09/28 04:26:43;;;;;;;27.50;21.02;;;486.70;2380.80;;;;;;5052132;28;20051;-77
2021/09/28 04:29:09;;;;;;;28.83;21.02;;;486.70;2380.80;;;;;;5054886;28;20052;-77
2021/09/28 04:31:35;;;;;;;26.98;21.08;;;486.70;2380.80;;;;;;5052538;28;20653;-77
2021/09/28 04:34:01;;;;;;;25.80;19.33;;;486.70;2380.80;;;;;;5047953;28;20116;-77
2021/09/28 04:36:28;;;;;;;28.08;20.95;;;486.70;2380.80;;;;;;5061702;28;20060;-77
2021/09/28 04:38:54;;;;;;;25.73;19.75;;;486.60;2380.80;;;;;;5068747;28;20025;-77
2021/09/28 04:41:20;;;;;;;32.33;20.65;;;486.70;2380.80;;;;;;5069018;28;20028;-77
2021/09/28 04:43:47;;;;;;;30.00;22.40;;;486.70;2380.80;;;;;;5046134;28;20021;-76
2021/09/28 04:46:14;;;;;;;29.95;20.77;;;486.70;2380.80;;;;;;5070118;28;20033;-77
2021/09/28 04:48:40;;;;;;;27.70;20.58;;;486.70;2380.80;;;;;;5058722;28;20391;-77
2021/09/28 04:51:06;;;;;;;30.35;20.85;;;486.70;2380.80;;;;;;5068450;28;20017;-77
2021/09/28 04:53:31;;;;;;;34.33;21.35;;;486.80;2380.80;;;;;;5067648;28;20033;-77
2021/09/28 04:55:57;;;;;;;31.67;21.15;;;486.70;2380.80;;;;;;5044621;28;20057;-78
2021/09/28 04:58:24;;;;;;;26.73;19.60;;;486.70;2380.80;;;;;;5065700;28;20031;-77
2021/09/28 05:00:50;;;;;;;30.75;21.52;;;486.70;2380.80;;;;;;5047123;28;20013;-77
2021/09/28 05:03:16;;;;;;;28.98;21.50;;;486.70;2380.80;;;;;;5067275;28;20021;-78
2021/09/28 05:05:42;;;;;;;31.10;21.50;;;486.70;2380.80;;;;;;5034134;28;20026;-78
2021/09/28 05:08:08;;;;;;;26.73;21.25;;;486.70;2380.80;;;;;;5053030;28;20020;-78
2021/09/28 05:10:34;;;;;;;28.90;21.58;;;486.70;2380.80;;;;;;5053590;28;20024;-78
2021/09/28 05:13:00;;;;;;;31.30;22.60;;;486.70;2380.80;;;;;;5054545;28;20115;-77
2021/09/28 05:15:26;;;;;;;26.13;19.75;;;486.70;2380.80;;;;;;5052126;28;20108;-78
2021/09/28 05:17:52;;;;;;;35.30;21.63;;;486.70;2380.80;;;;;;5051676;28;20109;-76
2021/09/28 05:20:20;;;;;;;29.05;20.88;;;486.70;2380.80;;;;;;5052844;28;20036;-76
2021/09/28 05:22:46;;;;;;;27.63;19.90;;;486.70;2380.80;;;;;;5052756;28;20029;-78
2021/09/28 05:25:12;;;;;;;27.52;21.25;;;486.80;2380.80;;;;;;5052449;28;20025;-77
2021/09/28 05:27:38;;;;;;;26.58;19.63;;;486.80;2380.80;;;;;;5052742;28;20028;-76
2021/09/28 05:30:05;;;;;;;28.55;21.20;;;486.90;2380.80;;;;;;5052141;28;20021;-77
2021/09/28 05:32:30;;;;;;;30.05;21.52;;;486.90;2380.80;;;;;;5049314;28;20036;-77
2021/09/28 05:34:56;;;;;;;29.77;21.77;;;486.90;2380.80;;;;;;5051110;28;20119;-76
2021/09/28 05:37:22;;;;;;;28.30;21.80;;;486.90;2380.80;;;;;;5051817;28;20029;-77
2021/09/28 05:39:48;;;;;;;27.50;20.88;;;486.90;2380.80;;;;;;5050892;28;20028;-77
2021/09/28 05:42:13;;;;;;;28.20;20.60;;;486.90;2380.80;;;;;;5050447;28;20059;-77
2021/09/28 05:44:39;;;;;;;33.80;22.73;;;486.80;2380.80;;;;;;5051818;28;20450;-77
2021/09/28 05:47:05;;;;;;;31.35;21.95;;;486.90;2380.80;;;;;;5050163;28;20044;-75
2021/09/28 05:49:32;;;;;;;29.95;21.15;;;486.90;2380.80;;;;;;5052289;28;20025;-76
2021/09/28 05:51:59;;;;;;;33.90;22.42;;;486.90;2380.80;;;;;;5050874;28;20032;-75
2021/09/28 05:54:27;;;;;;;36.95;21.63;;;486.90;2380.80;;;;;;5049563;28;20067;-76
2021/09/28 05:56:54;;;;;;;28.75;20.63;;;486.80;2380.80;;;;;;5051283;28;20025;-76
2021/09/28 05:59:20;;;;;;;28.23;20.65;;;486.80;2380.80;;;;;;5049607;28;20033;-76
2021/09/28 06:01:48;;;;;;;28.13;22.02;;;486.80;2380.80;;;;;;5051966;28;20867;-76
2021/09/28 06:04:15;;;;;;;33.72;21.70;;;486.90;2380.80;;;;;;5058717;28;20502;-76
2021/09/28 06:06:41;;;;;;;34.40;23.50;;;487.00;2380.80;;;;;;5043734;28;20027;-77
2021/09/28 06:09:07;;;;;;;30.60;21.23;;;487.00;2380.80;;;;;;5051492;28;20029;-76
2021/09/28 06:11:33;;;;;;;28.65;22.10;;;487.00;2380.80;;;;;;5052348;28;20029;-77
2021/09/28 06:13:59;;;;;;;30.13;21.73;;;487.00;2380.80;;;;;;5054665;28;20182;-76
2021/09/28 06:16:25;;;;;;;28.80;22.27;;;486.90;2380.80;;;;;;5051559;28;20025;-76
2021/09/28 06:18:51;;;;;;;31.27;21.85;;;486.90;2380.80;;;;;;5051489;28;20029;-77
2021/09/28 06:21:17;;;;;;;30.55;23.00;;;486.90;2380.80;;;;;;5056275;28;20028;-76
2021/09/28 06:23:42;;;;;;;29.95;22.60;;;486.80;2380.80;;;;;;5065817;28;20048;-76
2021/09/28 06:26:08;;;;;;;30.15;21.58;;;486.80;2380.80;;;;;;5057222;28;20028;-76
2021/09/28 06:28:36;;;;;;;31.85;22.55;;;486.80;2380.80;;;;;;5051866;28;20037;-76
2021/09/28 06:31:02;;;;;;;29.55;22.65;;;486.90;2380.80;;;;;;5049913;28;20031;-76
2021/09/28 06:33:28;;;;;;;31.73;22.75;;;486.80;2380.80;;;;;;5044114;28;20020;-76
2021/09/28 06:35:54;;;;;;;36.35;26.23;;;486.80;2380.80;;;;;;5057822;28;20025;-76
2021/09/28 06:38:19;;;;;;;35.28;24.25;;;486.90;2380.80;;;;;;5058273;28;20496;-76
2021/09/28 06:40:45;;;;;;;35.00;23.27;;;486.90;2380.80;;;;;;5066802;28;20059;-76
2021/09/28 06:43:11;;;;;;;31.85;24.70;;;486.90;2380.80;;;;;;5051775;28;20060;-76
2021/09/28 06:45:37;;;;;;;29.90;24.40;;;486.80;2380.80;;;;;;5042750;28;20115;-75
2021/09/28 06:48:02;;;;;;;37.90;24.85;;;486.80;2380.80;;;;;;5053293;28;20017;-75
2021/09/28 06:50:28;;;;;;;34.85;24.90;;;486.80;2380.80;;;;;;5051729;28;20026;-76
2021/09/28 06:52:54;;;;;;;33.08;24.75;;;486.80;2380.80;;;;;;5046418;28;20108;-75
2021/09/28 06:55:20;;;;;;;34.00;24.50;;;486.80;2380.80;;;;;;5043544;28;20028;-76
2021/09/28 06:57:46;;;;;;;35.67;26.80;;;486.80;2380.80;;;;;;5049497;28;20029;-76
2021/09/28 07:00:12;;;;;;;40.30;28.73;;;486.80;2380.80;;;;;;5051363;28;20025;-75
2021/09/28 07:02:38;;;;;;;35.75;27.92;;;486.90;2380.80;;;;;;5049338;28;20029;-75
2021/09/28 07:05:12;;;;;;;39.10;27.95;;;486.90;2380.80;;;;;;5042847;28;20033;-75
2021/09/28 07:07:39;;;;;;;35.15;25.60;;;486.90;2380.80;;;;;;5057202;28;20184;-75
2021/09/28 07:10:05;;;;;;;38.10;27.88;;;487.00;2380.80;;;;;;5052765;28;20032;-75
2021/09/28 07:12:31;;;;;;;34.22;25.77;;;487.00;2380.80;;;;;;5044342;28;20023;-76
2021/09/28 07:14:57;;;;;;;31.50;25.83;;;487.00;2380.80;;;;;;5052258;28;20021;-76
2021/09/28 07:17:23;;;;;;;36.63;27.23;;;486.90;2380.80;;;;;;5052741;28;20025;-76
2021/09/28 07:19:48;;;;;;;36.80;27.65;;;486.90;2380.80;;;;;;5054377;28;20060;-75
2021/09/28 07:22:14;;;;;;;47.53;41.17;;;486.80;2380.80;;;;;;5070340;28;20055;-75
2021/09/28 07:24:40;;;;;;;38.80;28.45;;;486.70;2380.80;;;;;;5054337;28;20081;-76
2021/09/28 07:27:07;;;;;;;41.47;31.73;;;486.70;2380.80;;;;;;5053306;28;20021;-76
2021/09/28 07:29:33;;;;;;;44.40;29.85;;;486.70;2380.80;;;;;;5054256;28;20032;-76
2021/09/28 07:31:59;;;;;;;47.92;35.95;;;486.60;2380.80;;;;;;5053567;28;20068;-76
2021/09/28 07:34:24;;;;;;;48.53;33.22;;;486.60;2380.80;;;;;;5052416;28;20021;-77
2021/09/28 07:36:50;;;;;;;51.00;34.10;;;486.60;2380.80;;;;;;5053280;28;20075;-76
2021/09/28 07:39:16;;;;;;;46.90;32.65;;;486.70;2380.80;;;;;;5054714;28;20035;-76
2021/09/28 07:41:42;;;;;;;51.08;35.40;;;486.60;2380.80;;;;;;5052857;28;20078;-76
2021/09/28 07:44:08;;;;;;;47.72;31.30;;;486.60;2380.80;;;;;;5054522;28;20036;-76
2021/09/28 07:46:33;;;;;;;52.35;33.55;;;486.50;2380.80;;;;;;5068884;28;20511;-76
2021/09/28 07:48:59;;;;;;;49.58;33.72;;;486.60;2380.80;;;;;;5053311;28;20485;-75
2021/09/28 07:51:25;;;;;;;55.63;34.47;;;486.60;2380.80;;;;;;5053857;28;20893;-76
2021/09/28 07:53:52;;;;;;;50.80;33.30;;;486.70;2380.80;;;;;;5053916;28;20032;-76
2021/09/28 07:56:18;;;;;;;48.92;32.67;;;486.60;2380.80;;;;;;5052416;28;20387;-76
2021/09/28 07:58:43;;;;;;;52.22;33.03;;;486.70;2380.80;;;;;;5052012;28;20043;-76
2021/09/28 08:01:09;;;;;;;48.60;33.33;;;486.70;2380.80;;;;;;5050952;28;20086;-76
2021/09/28 08:03:35;;;;;;;53.72;36.33;;;486.80;2380.80;;;;;;5046601;28;20435;-77
2021/09/28 08:06:01;;;;;;;54.78;34.67;;;486.80;2380.80;;;;;;5059524;28;20040;-76
2021/09/28 08:08:27;;;;;;;52.13;32.97;;;486.70;2380.80;;;;;;5068884;28;20025;-76
2021/09/28 08:10:53;;;;;;;62.22;41.78;;;486.70;2380.80;;;;;;5047457;28;20550;-76
2021/09/28 08:13:18;;;;;;;52.35;34.25;;;486.70;2380.80;;;;;;5053482;28;20361;-76
2021/09/28 08:15:44;;;;;;;50.38;34.67;;;486.70;2380.80;;;;;;5052775;28;20029;-76
2021/09/28 08:18:11;;;;;;;52.95;32.50;;;486.80;2380.80;;;;;;5049911;28;20446;-76
2021/09/28 08:20:36;;;;;;;55.92;33.63;;;486.90;2380.80;;;;;;5043899;28;20037;-76
2021/09/28 08:23:02;;;;;;;53.95;32.58;;;487.00;2380.80;;;;;;5039741;28;20038;-76
2021/09/28 08:25:37;;;;;;;50.15;31.40;;;487.00;2380.80;;;;;;5038935;28;20080;-75
2021/09/28 08:30:48;;;;;;;41.92;28.85;;;486.90;2380.80;;;;;;5054784;28;20036;-76
2021/09/28 08:33:13;;;;;;;42.20;31.00;;;487.00;2380.80;;;;;;5050836;28;20022;-75
2021/09/28 08:35:39;;;;;;;41.63;29.08;;;487.00;2380.80;;;;;;5052992;28;20108;-75
2021/09/28 08:38:05;;;;;;;40.40;28.77;;;487.10;2380.80;;;;;;5053762;28;20036;-75
2021/09/28 08:40:31;;;;;;;39.53;27.10;;;487.30;2380.80;;;;;;5051156;28;20037;-75
2021/09/28 08:42:56;;;;;;;40.85;26.80;;;487.30;2380.80;;;;;;5050132;28;20029;-76
2021/09/28 08:45:22;;;;;;;37.83;26.27;;;512.10;2380.80;;;;;;5053305;28;20033;-76
2021/09/28 08:47:48;;;;;;;39.20;27.38;;;512.20;2380.80;;;;;;5050785;28;20381;-76
2021/09/28 08:50:19;;;;;;;37.10;28.60;;;512.20;2380.80;;;;;;5062484;28;20033;-76
2021/09/28 08:52:47;;;;;;;35.17;26.45;;;512.30;2380.80;;;;;;5049394;28;20441;-76
2021/09/28 08:55:13;;;;;;;40.92;28.23;;;512.40;2380.80;;;;;;5044751;28;20530;-76
2021/09/28 08:57:41;;;;;;;39.47;27.67;;;512.70;2380.80;;;;;;5058334;28;20032;-76
2021/09/28 09:00:15;;;;;;;37.38;27.38;;;512.50;2380.80;;;;;;5047162;28;20025;-76
2021/09/28 09:02:44;;;;;;;39.05;27.17;;;512.70;2380.80;;;;;;5070754;28;20476;-76
2021/09/28 09:05:14;;;;;;;38.60;26.95;;;512.70;2380.80;;;;;;5051977;28;20057;-76
2021/09/28 09:07:41;;;;;;;31.45;25.50;;;512.70;2380.80;;;;;;5043385;28;20025;-76
2021/09/28 09:10:08;;;;;;;32.08;24.50;;;512.80;2380.80;;;;;;5058030;28;20021;-76
2021/09/28 09:12:40;;;;;;;33.88;24.50;;;512.90;2380.80;;;;;;5051559;28;20483;-76
2021/09/28 09:15:21;;;;;;;35.33;26.10;;;512.70;2380.80;;;;;;5068101;28;20055;-76
2021/09/28 09:17:50;;;;;;;32.95;26.63;;;512.80;2380.80;;;;;;5038441;28;20430;-76
2021/09/28 09:20:27;;;;;;;36.92;24.25;;;512.70;2380.80;;;;;;5053057;28;20024;-76
2021/09/28 09:22:53;;;;;;;38.22;26.75;;;512.80;2380.80;;;;;;5039060;28;20063;-76
2021/09/28 09:25:21;;;;;;;34.10;24.27;;;537.70;2406.40;;;;;;5052760;28;20032;-77
2021/09/28 09:27:47;;;;;;;34.17;25.73;;;537.90;2406.40;;;;;;5052465;28;20017;-76
2021/09/28 09:30:15;;;;;;;34.95;25.92;;;538.00;2406.40;;;;;;5051825;28;20048;-76
2021/09/28 09:32:55;;;;;;;35.67;26.77;;;538.00;2406.40;;;;;;5050571;28;20032;-76
2021/09/28 09:35:27;;;;;;;38.38;27.98;;;538.10;2406.40;;;;;;5049507;28;20103;-76
2021/09/28 09:38:15;;;;;;;61.67;55.33;;;538.20;2406.40;;;;;;5067176;28;20057;-75
2021/09/28 09:40:46;;;;;;;44.25;35.28;;;538.10;2406.40;;;;;;5049854;28;20024;-76
2021/09/28 09:43:14;;;;;;;44.83;34.95;;;538.10;2406.40;;;;;;5056362;28;20029;-76
2021/09/28 09:45:40;;;;;;;47.10;34.50;;;537.80;2406.40;;;;;;5047266;28;20446;-76
2021/09/28 09:48:26;;;;;;;45.00;33.50;;;537.70;2406.40;;;;;;5049403;28;20431;-76
2021/09/28 09:50:57;;;;;;;49.35;38.15;;;537.60;2406.40;;;;;;5047145;28;20033;-75
2021/09/28 09:53:23;;;;;;;46.72;37.63;;;537.60;2406.40;;;;;;5047589;28;20045;-76
2021/09/28 09:55:49;;;;;;;52.45;39.88;;;512.90;2380.80;;;;;;5049335;28;20036;-76
2021/09/28 09:58:15;;;;;;;61.97;42.38;;;512.90;2380.80;;;;;;5049803;28;20114;-76
2021/09/28 10:00:41;;;;;;;58.15;39.58;;;537.60;2406.40;;;;;;5048696;28;20025;-76
2021/09/28 10:03:10;;;;;;;45.22;36.17;;;537.70;2406.40;;;;;;5050124;28;20033;-76
2021/09/28 10:05:36;;;;;;;49.92;37.95;;;537.60;2406.40;;;;;;5047434;28;20025;-76
2021/09/28 10:08:07;;;;;;;49.00;35.28;;;537.70;2406.40;;;;;;5059078;28;20071;-76
2021/09/28 10:10:33;;;;;;;43.80;32.10;;;537.90;2406.40;;;;;;5055647;28;20021;-76
2021/09/28 10:12:59;;;;;;;44.65;34.20;;;538.00;2406.40;;;;;;5050210;28;20024;-76
2021/09/28 10:15:25;;;;;;;42.83;34.28;;;538.00;2406.40;;;;;;5051196;28;20029;-76
2021/09/28 10:17:50;;;;;;;50.40;36.45;;;538.20;2406.40;;;;;;5054106;28;20191;-76
2021/09/28 10:20:22;;;;;;;40.28;31.30;;;563.20;2432.00;;;;;;5058493;28;20435;-76
2021/09/28 10:23:20;;;;;;;39.28;28.35;;;563.50;2432.00;;;;;;5050986;28;20435;-76
2021/09/28 10:25:46;;;;;;;45.33;30.17;;;563.50;2432.00;;;;;;5046461;28;20816;-76
2021/09/28 10:28:13;;;;;;;41.70;30.33;;;563.50;2432.00;;;;;;5050670;28;20063;-76
2021/09/28 10:30:44;;;;;;;41.80;29.05;;;563.50;2432.00;;;;;;5050016;28;20025;-76
2021/09/28 10:33:21;;;;;;;39.35;28.15;;;563.60;2432.00;;;;;;5056861;28;20075;-76
2021/09/28 10:35:58;;;;;;;36.67;28.60;;;563.40;2432.00;;;;;;5067041;28;20112;-76
2021/09/28 10:38:53;;;;;;;38.88;29.65;;;563.50;2432.00;;;;;;5050974;28;20033;-76
2021/09/28 10:41:31;;;;;;;37.45;29.30;;;563.20;2432.00;;;;;;5053056;28;20025;-76
2021/09/28 10:44:37;;;;;;;46.55;32.78;;;563.20;2432.00;;;;;;5053778;28;20388;-76
2021/09/28 10:47:04;;;;;;;48.70;34.13;;;538.40;2406.40;;;;;;5054923;28;20025;-76
2021/09/28 10:49:36;;;;;;;44.13;32.63;;;538.30;2406.40;;;;;;5061977;28;20070;-75
2021/09/28 10:52:20;;;;;;;41.47;30.08;;;538.20;2406.40;;;;;;5055721;28;20024;-76
2021/09/28 10:55:11;;;;;;;48.35;36.10;;;538.10;2406.40;;;;;;5055549;28;20028;-76
2021/09/28 10:58:11;;;;;;;48.22;33.70;;;538.10;2406.40;;;;;;5051959;28;20036;-76
2021/09/28 11:00:40;;;;;;;48.83;34.45;;;538.30;2406.40;;;;;;5040099;28;20426;-76
2021/09/28 11:03:08;;;;;;;45.40;35.90;;;538.40;2406.40;;;;;;5084087;28;20070;-75
2021/09/28 11:05:40;;;;;;;42.60;31.27;;;538.50;2406.40;;;;;;5053548;28;20068;-75
2021/09/28 11:08:08;;;;;;;40.95;32.05;;;563.20;2432.00;;;;;;5070349;28;20056;-76
2021/09/28 11:10:38;;;;;;;35.65;28.05;;;563.20;2432.00;;;;;;5054427;28;20063;-76
2021/09/28 11:13:09;;;;;;;35.88;29.77;;;563.40;2432.00;;;;;;5053052;28;20048;-76
2021/09/28 11:15:35;;;;;;;32.65;25.48;;;563.60;2432.00;;;;;;5053625;28;20033;-76
2021/09/28 11:18:07;;;;;;;34.75;26.15;;;563.60;2432.00;;;;;;5049335;28;20025;-76
2021/09/28 11:20:34;;;;;;;37.33;26.67;;;563.60;2432.00;;;;;;5053238;28;20111;-76
2021/09/28 11:23:12;;;;;;;32.22;24.52;;;563.60;2432.00;;;;;;5054287;28;20040;-76
2021/09/28 11:25:40;;;;;;;33.72;25.20;;;563.60;2432.00;;;;;;5053573;28;20604;-76
2021/09/28 11:28:12;;;;;;;29.50;24.63;;;563.60;2432.00;;;;;;5054868;28;20487;-76
2021/09/28 11:30:41;;;;;;;31.10;23.40;;;563.60;2432.00;;;;;;5049228;28;20484;-76
2021/09/28 11:33:09;;;;;;;30.92;23.23;;;563.60;2432.00;;;;;;5064055;28;20127;-78
2021/09/28 11:35:36;;;;;;;29.92;22.45;;;563.60;2432.00;;;;;;5066305;28;20491;-77
2021/09/28 11:38:04;;;;;;;30.08;23.60;;;563.50;2432.00;;;;;;5050702;28;20037;-77
2021/09/28 11:40:35;;;;;;;25.90;21.52;;;563.40;2432.00;;;;;;5053762;28;20416;-78
2021/09/28 11:43:24;;;;;;;32.00;24.35;;;563.30;2432.00;;;;;;5053460;28;20021;-79
2021/09/28 11:46:00;;;;;;;33.95;25.40;;;563.30;2432.00;;;;;;5052103;28;20560;-76
2021/09/28 11:48:28;;;;;;;31.85;23.80;;;563.30;2432.00;;;;;;5052686;28;20120;-78
2021/09/28 11:50:54;;;;;;;35.13;24.85;;;563.20;2432.00;;;;;;5053511;28;20033;-77
2021/09/28 11:53:20;;;;;;;33.67;25.00;;;563.30;2432.00;;;;;;5052052;28;20032;-77
2021/09/28 11:55:46;;;;;;;33.33;23.33;;;563.20;2432.00;;;;;;5052454;28;20437;-79
2021/09/28 11:58:12;;;;;;;30.65;23.23;;;538.40;2406.40;;;;;;5058442;28;20024;-77
2021/09/28 12:00:43;;;;;;;33.45;23.63;;;563.20;2432.00;;;;;;5056586;28;20514;-78
2021/09/28 12:03:09;;;;;;;29.85;21.92;;;538.50;2406.40;;;;;;5053437;28;20043;-77